createdAt,value
2018-06-13T00:00:42.317Z,15.93
2018-06-13T00:01:42.284Z,15.96
2018-06-13T00:02:42.254Z,15.99
2018-06-13T00:03:42.233Z,15.93
2018-06-13T00:04:42.202Z,15.95
2018-06-13T00:05:42.176Z,15.98
2018-06-13T00:06:42.168Z,15.98
2018-06-13T00:07:42.119Z,15.96
2018-06-13T00:08:42.087Z,15.93
2018-06-13T00:09:42.093Z,15.81
2018-06-13T00:10:42.037Z,15.73
2018-06-13T00:11:42.005Z,15.70
2018-06-13T00:12:41.983Z,15.72
2018-06-13T00:13:41.956Z,15.68
2018-06-13T00:14:41.929Z,15.65
2018-06-13T00:15:41.906Z,15.68
2018-06-13T00:16:41.870Z,15.66
2018-06-13T00:17:41.845Z,15.62
2018-06-13T00:18:41.896Z,15.52
2018-06-13T00:19:41.794Z,15.58
2018-06-13T00:20:41.763Z,15.60
2018-06-13T00:21:41.771Z,15.51
2018-06-13T00:22:41.709Z,15.56
2018-06-13T00:23:41.683Z,15.51
2018-06-13T00:24:41.658Z,15.58
2018-06-13T00:25:41.636Z,15.50
2018-06-13T00:26:41.610Z,15.59
2018-06-13T00:27:41.588Z,15.66
2018-06-13T00:28:41.542Z,15.62
2018-06-13T00:29:41.518Z,15.65
2018-06-13T00:30:41.514Z,15.68
2018-06-13T00:31:41.471Z,15.73
2018-06-13T00:32:41.438Z,15.78
2018-06-13T00:33:41.433Z,15.78
2018-06-13T00:34:41.394Z,15.87
2018-06-13T00:35:41.356Z,15.81
2018-06-13T00:36:41.330Z,15.84
2018-06-13T00:37:41.304Z,15.84
2018-06-13T00:38:41.274Z,15.85
2018-06-13T00:39:41.261Z,15.88
2018-06-13T00:40:41.225Z,15.93
2018-06-13T00:41:41.190Z,15.93
2018-06-13T00:42:41.181Z,15.91
2018-06-13T00:43:41.131Z,15.93
2018-06-13T00:44:41.113Z,15.91
2018-06-13T00:45:41.090Z,15.95
2018-06-13T00:46:41.054Z,15.95
2018-06-13T00:47:41.038Z,15.93
2018-06-13T00:48:41.012Z,15.90
2018-06-13T00:49:40.975Z,15.93
2018-06-13T00:50:40.951Z,15.95
2018-06-13T00:51:40.929Z,15.90
2018-06-13T00:52:40.887Z,16.02
2018-06-13T00:53:40.867Z,15.93
2018-06-13T00:54:40.849Z,15.91
2018-06-13T00:55:40.802Z,15.99
2018-06-13T00:56:40.793Z,15.99
2018-06-13T00:57:40.760Z,15.99
2018-06-13T00:58:40.738Z,15.95
2018-06-13T00:59:40.708Z,15.87
2018-06-13T01:00:40.671Z,15.83
2018-06-13T01:01:40.647Z,15.93
2018-06-13T01:02:40.610Z,15.91
2018-06-13T01:03:40.594Z,15.90
2018-06-13T01:04:40.567Z,15.99
2018-06-13T01:05:40.536Z,15.96
2018-06-13T01:06:40.517Z,15.91
2018-06-13T01:07:40.494Z,15.93
2018-06-13T01:08:40.462Z,15.88
2018-06-13T01:09:40.442Z,15.85
2018-06-13T01:10:40.407Z,15.83
2018-06-13T01:11:40.385Z,15.87
2018-06-13T01:12:40.353Z,15.84
2018-06-13T01:13:40.338Z,15.72
2018-06-13T01:14:40.294Z,15.87
2018-06-13T01:15:40.275Z,15.88
2018-06-13T01:16:40.234Z,15.87
2018-06-13T01:17:40.200Z,15.87
2018-06-13T01:18:40.208Z,15.96
2018-06-13T01:19:40.157Z,15.90
2018-06-13T01:20:40.134Z,15.85
2018-06-13T01:21:40.119Z,15.91
2018-06-13T01:22:40.065Z,15.88
2018-06-13T01:23:40.048Z,15.80
2018-06-13T01:24:40.021Z,15.76
2018-06-13T01:25:39.995Z,15.76
2018-06-13T01:26:39.966Z,15.73
2018-06-13T01:27:39.955Z,15.77
2018-06-13T01:28:39.905Z,15.80
2018-06-13T01:29:39.882Z,15.73
2018-06-13T01:30:39.857Z,15.77
2018-06-13T01:31:39.822Z,15.78
2018-06-13T01:32:39.806Z,15.78
2018-06-13T01:33:39.781Z,15.72
2018-06-13T01:34:39.747Z,15.76
2018-06-13T01:35:39.718Z,15.73
2018-06-13T01:36:39.700Z,15.87
2018-06-13T01:37:39.658Z,15.88
2018-06-13T01:38:39.653Z,15.96
2018-06-13T01:39:39.653Z,15.80
2018-06-13T01:40:39.577Z,15.91
2018-06-13T01:41:39.558Z,15.90
2018-06-13T01:42:39.521Z,15.95
2018-06-13T01:43:39.494Z,15.99
2018-06-13T01:44:39.489Z,15.98
2018-06-13T01:45:39.453Z,15.96
2018-06-13T01:46:39.415Z,16.06
2018-06-13T01:47:39.398Z,16.02
2018-06-13T01:48:39.375Z,15.98
2018-06-13T01:49:39.331Z,16.00
2018-06-13T01:50:39.309Z,16.03
2018-06-13T01:51:39.278Z,15.90
2018-06-13T01:52:39.253Z,15.91
2018-06-13T01:53:39.223Z,15.85
2018-06-13T01:54:39.213Z,15.93
2018-06-13T01:55:39.164Z,15.83
2018-06-13T01:56:39.147Z,15.85
2018-06-13T01:57:39.127Z,15.81
2018-06-13T01:58:39.091Z,15.80
2018-06-13T01:59:39.059Z,15.88
2018-06-13T02:00:39.030Z,15.83
2018-06-13T02:01:39.003Z,15.85
2018-06-13T02:02:38.975Z,15.84
2018-06-13T02:03:38.954Z,15.69
2018-06-13T02:04:38.930Z,15.70
2018-06-13T02:05:38.897Z,15.72
2018-06-13T02:06:38.875Z,15.70
2018-06-13T02:07:38.876Z,15.76
2018-06-13T02:08:38.809Z,15.69
2018-06-13T02:09:38.803Z,15.70
2018-06-13T02:10:38.757Z,15.70
2018-06-13T02:11:38.738Z,15.70
2018-06-13T02:12:38.704Z,15.70
2018-06-13T02:13:38.676Z,15.69
2018-06-13T02:14:38.651Z,15.60
2018-06-13T02:15:38.647Z,15.51
2018-06-13T02:16:38.594Z,15.52
2018-06-13T02:17:38.566Z,15.54
2018-06-13T02:18:38.596Z,15.52
2018-06-13T02:19:38.515Z,15.54
2018-06-13T02:20:38.479Z,15.63
2018-06-13T02:21:38.485Z,15.62
2018-06-13T02:22:38.429Z,15.62
2018-06-13T02:23:38.397Z,15.66
2018-06-13T02:24:38.383Z,15.59
2018-06-13T02:25:38.349Z,15.56
2018-06-13T02:26:38.318Z,15.48
2018-06-13T02:27:38.299Z,15.50
2018-06-13T02:28:38.267Z,15.48
2018-06-13T02:29:38.238Z,15.45
2018-06-13T02:30:38.224Z,15.45
2018-06-13T02:31:38.197Z,15.45
2018-06-13T02:32:38.154Z,15.52
2018-06-13T02:33:38.154Z,15.50
2018-06-13T02:34:38.109Z,15.47
2018-06-13T02:35:38.074Z,15.50
2018-06-13T02:36:38.062Z,15.59
2018-06-13T02:37:38.019Z,15.65
2018-06-13T02:38:37.988Z,15.63
2018-06-13T02:39:37.978Z,15.69
2018-06-13T02:40:37.929Z,15.68
2018-06-13T02:41:37.917Z,15.60
2018-06-13T02:42:37.884Z,15.62
2018-06-13T02:43:37.854Z,15.56
2018-06-13T02:44:37.827Z,15.52
2018-06-13T02:45:37.825Z,15.51
2018-06-13T02:46:37.768Z,15.52
2018-06-13T02:47:37.744Z,15.54
2018-06-13T02:48:37.736Z,15.60
2018-06-13T02:49:37.688Z,15.60
2018-06-13T02:50:37.749Z,15.68
2018-06-13T02:51:37.671Z,15.65
2018-06-13T02:52:37.604Z,15.70
2018-06-13T02:53:37.605Z,15.65
2018-06-13T02:54:37.591Z,15.58
2018-06-13T02:55:37.598Z,15.59
2018-06-13T02:56:37.511Z,15.58
2018-06-13T02:57:37.472Z,15.54
2018-06-13T02:58:37.440Z,15.54
2018-06-13T02:59:37.507Z,15.52
2018-06-13T03:00:37.391Z,15.65
2018-06-13T03:01:37.416Z,15.62
2018-06-13T03:02:37.337Z,15.54
2018-06-13T03:03:37.420Z,15.60
2018-06-13T03:04:37.274Z,15.58
2018-06-13T03:05:37.252Z,15.51
2018-06-13T03:06:37.256Z,15.50
2018-06-13T03:07:37.187Z,15.45
2018-06-13T03:08:37.180Z,15.51
2018-06-13T03:09:37.154Z,15.51
2018-06-13T03:10:37.118Z,15.52
2018-06-13T03:11:37.092Z,15.65
2018-06-13T03:12:37.073Z,15.65
2018-06-13T03:13:37.125Z,15.65
2018-06-13T03:14:37.008Z,15.68
2018-06-13T03:15:37.032Z,15.66
2018-06-13T03:16:36.957Z,15.62
2018-06-13T03:17:36.920Z,15.63
2018-06-13T03:18:36.912Z,15.62
2018-06-13T03:19:36.872Z,15.60
2018-06-13T03:20:36.843Z,15.65
2018-06-13T03:21:38.595Z,15.63
2018-06-13T03:22:36.783Z,15.59
2018-06-13T03:23:36.770Z,15.60
2018-06-13T03:24:36.730Z,15.60
2018-06-13T03:25:36.702Z,15.68
2018-06-13T03:26:36.676Z,15.60
2018-06-13T03:27:36.654Z,15.54
2018-06-13T03:28:36.625Z,15.54
2018-06-13T03:29:36.597Z,15.50
2018-06-13T03:30:36.578Z,15.50
2018-06-13T03:31:36.533Z,15.51
2018-06-13T03:32:36.521Z,15.59
2018-06-13T03:33:36.490Z,15.69
2018-06-13T03:34:36.449Z,15.56
2018-06-13T03:35:36.436Z,15.52
2018-06-13T03:36:36.392Z,15.58
2018-06-13T03:37:36.378Z,15.62
2018-06-13T03:38:36.347Z,15.56
2018-06-13T03:39:36.312Z,15.54
2018-06-13T03:40:36.291Z,15.52
2018-06-13T03:41:36.259Z,15.41
2018-06-13T03:42:36.234Z,15.44
2018-06-13T03:43:36.205Z,15.48
2018-06-13T03:44:36.174Z,15.51
2018-06-13T03:45:36.148Z,15.43
2018-06-13T03:46:36.164Z,15.41
2018-06-13T03:47:36.098Z,15.41
2018-06-13T03:48:36.063Z,15.44
2018-06-13T03:49:36.041Z,15.45
2018-06-13T03:50:36.011Z,15.45
2018-06-13T03:51:35.985Z,15.44
2018-06-13T03:52:35.962Z,15.47
2018-06-13T03:53:35.937Z,15.50
2018-06-13T03:54:35.910Z,15.60
2018-06-13T03:55:35.875Z,15.59
2018-06-13T03:56:35.841Z,15.66
2018-06-13T03:57:35.821Z,15.66
2018-06-13T03:58:35.792Z,15.68
2018-06-13T03:59:35.757Z,15.69
2018-06-13T04:00:35.739Z,15.73
2018-06-13T04:01:35.704Z,15.73
2018-06-13T04:02:35.684Z,15.76
2018-06-13T04:03:35.650Z,15.76
2018-06-13T04:04:35.626Z,15.70
2018-06-13T04:05:35.603Z,15.83
2018-06-13T04:06:35.599Z,15.81
2018-06-13T04:07:35.550Z,15.84
2018-06-13T04:08:35.518Z,15.72
2018-06-13T04:09:35.483Z,15.76
2018-06-13T04:10:35.488Z,15.70
2018-06-13T04:11:35.432Z,15.69
2018-06-13T04:12:35.411Z,15.66
2018-06-13T04:13:35.399Z,15.69
2018-06-13T04:14:35.354Z,15.69
2018-06-13T04:15:35.327Z,15.63
2018-06-13T04:16:35.292Z,15.58
2018-06-13T04:17:35.266Z,15.51
2018-06-13T04:18:35.246Z,15.45
2018-06-13T04:19:35.221Z,15.38
2018-06-13T04:20:35.184Z,15.32
2018-06-13T04:21:35.156Z,15.26
2018-06-13T04:22:35.127Z,15.26
2018-06-13T04:23:35.101Z,15.29
2018-06-13T04:24:35.080Z,15.26
2018-06-13T04:25:35.062Z,15.29
2018-06-13T04:26:35.032Z,15.20
2018-06-13T04:27:35.009Z,15.20
2018-06-13T04:28:34.963Z,15.23
2018-06-13T04:29:34.943Z,15.27
2018-06-13T04:30:34.914Z,15.26
2018-06-13T04:31:34.884Z,15.25
2018-06-13T04:32:36.596Z,15.27
2018-06-13T04:33:34.840Z,15.23
2018-06-13T04:34:34.868Z,15.27
2018-06-13T04:35:34.765Z,15.27
2018-06-13T04:36:34.756Z,15.40
2018-06-13T04:37:34.727Z,15.41
2018-06-13T04:38:34.702Z,15.36
2018-06-13T04:39:34.672Z,15.35
2018-06-13T04:40:34.646Z,15.35
2018-06-13T04:41:34.616Z,15.32
2018-06-13T04:42:34.589Z,15.35
2018-06-13T04:43:34.544Z,15.45
2018-06-13T04:44:34.589Z,15.50
2018-06-13T04:45:34.550Z,15.59
2018-06-13T04:46:34.463Z,15.47
2018-06-13T04:47:34.464Z,15.52
2018-06-13T04:48:34.408Z,15.52
2018-06-13T04:49:34.381Z,15.63
2018-06-13T04:50:34.357Z,15.69
2018-06-13T04:51:34.340Z,15.62
2018-06-13T04:52:34.308Z,15.63
2018-06-13T04:53:34.271Z,15.69
2018-06-13T04:54:34.245Z,15.66
2018-06-13T04:55:34.212Z,15.63
2018-06-13T04:56:34.195Z,15.66
2018-06-13T04:57:34.169Z,15.44
2018-06-13T04:58:34.135Z,15.51
2018-06-13T04:59:34.111Z,15.41
2018-06-13T05:00:34.092Z,15.45
2018-06-13T05:01:34.063Z,15.48
2018-06-13T05:02:34.028Z,15.50
2018-06-13T05:03:33.998Z,15.52
2018-06-13T05:04:33.974Z,15.60
2018-06-13T05:05:33.945Z,15.65
2018-06-13T05:06:33.916Z,15.59
2018-06-13T05:07:33.901Z,15.54
2018-06-13T05:08:33.868Z,15.59
2018-06-13T05:09:33.838Z,15.70
2018-06-13T05:10:33.813Z,15.68
2018-06-13T05:11:33.781Z,15.70
2018-06-13T05:12:33.756Z,15.68
2018-06-13T05:13:33.755Z,15.68
2018-06-13T05:14:33.696Z,15.66
2018-06-13T05:15:33.692Z,15.72
2018-06-13T05:16:33.653Z,15.62
2018-06-13T05:17:33.675Z,15.63
2018-06-13T05:18:33.645Z,15.59
2018-06-13T05:19:33.618Z,15.66
2018-06-13T05:20:33.594Z,15.73
2018-06-13T05:21:33.558Z,15.77
2018-06-13T05:22:33.561Z,15.76
2018-06-13T05:23:33.512Z,15.73
2018-06-13T05:24:33.485Z,15.78
2018-06-13T05:25:33.453Z,15.83
2018-06-13T05:26:33.441Z,15.83
2018-06-13T05:27:33.352Z,15.84
2018-06-13T05:28:33.420Z,15.70
2018-06-13T05:29:33.349Z,15.76
2018-06-13T05:30:33.312Z,15.78
2018-06-13T05:31:33.301Z,15.91
2018-06-13T05:32:33.265Z,15.87
2018-06-13T05:33:33.222Z,15.81
2018-06-13T05:34:33.271Z,15.84
2018-06-13T05:35:33.167Z,15.93
2018-06-13T05:36:33.099Z,15.91
2018-06-13T05:37:33.070Z,16.00
2018-06-13T05:38:33.038Z,16.00
2018-06-13T05:39:33.019Z,16.03
2018-06-13T05:40:32.990Z,16.09
2018-06-13T05:41:32.960Z,16.00
2018-06-13T05:42:33.010Z,16.00
2018-06-13T05:43:32.909Z,16.00
2018-06-13T05:44:32.933Z,16.10
2018-06-13T05:45:32.900Z,16.18
2018-06-13T05:46:32.832Z,16.24
2018-06-13T05:47:32.801Z,16.10
2018-06-13T05:48:32.777Z,16.28
2018-06-13T05:49:32.756Z,16.29
2018-06-13T05:50:32.717Z,16.34
2018-06-13T05:51:32.704Z,16.34
2018-06-13T05:52:32.656Z,16.40
2018-06-13T05:53:32.640Z,16.39
2018-06-13T05:54:32.629Z,16.37
2018-06-13T05:55:32.584Z,16.32
2018-06-13T05:56:32.547Z,16.34
2018-06-13T05:57:32.524Z,16.28
2018-06-13T05:58:32.496Z,16.28
2018-06-13T05:59:32.473Z,16.32
2018-06-13T06:00:32.451Z,16.40
2018-06-13T06:01:32.465Z,16.54
2018-06-13T06:02:32.394Z,16.49
2018-06-13T06:03:32.378Z,16.47
2018-06-13T06:04:32.340Z,16.57
2018-06-13T06:05:32.315Z,16.52
2018-06-13T06:06:35.078Z,16.61
2018-06-13T06:07:32.262Z,16.67
2018-06-13T06:08:32.231Z,16.72
2018-06-13T06:09:32.230Z,16.72
2018-06-13T06:10:32.234Z,16.65
2018-06-13T06:11:35.091Z,16.72
2018-06-13T06:12:32.122Z,16.72
2018-06-13T06:13:32.106Z,16.54
2018-06-13T06:14:32.156Z,16.55
2018-06-13T06:15:32.051Z,16.59
2018-06-13T06:16:32.019Z,16.54
2018-06-13T06:17:31.994Z,16.57
2018-06-13T06:18:31.962Z,16.54
2018-06-13T06:19:31.936Z,16.61
2018-06-13T06:20:31.916Z,16.61
2018-06-13T06:21:31.893Z,16.59
2018-06-13T06:22:31.860Z,16.59
2018-06-13T06:23:31.858Z,16.64
2018-06-13T06:24:31.812Z,16.57
2018-06-13T06:25:31.810Z,16.62
2018-06-13T06:26:31.768Z,16.77
2018-06-13T06:27:31.740Z,16.76
2018-06-13T06:28:31.703Z,16.83
2018-06-13T06:29:31.673Z,16.74
2018-06-13T06:30:31.642Z,16.79
2018-06-13T06:31:31.624Z,16.72
2018-06-13T06:32:31.606Z,16.79
2018-06-13T06:33:31.573Z,16.77
2018-06-13T06:34:31.551Z,16.83
2018-06-13T06:35:31.527Z,16.74
2018-06-13T06:36:31.495Z,16.74
2018-06-13T06:37:33.090Z,16.88
2018-06-13T06:38:31.433Z,16.61
2018-06-13T06:39:31.416Z,16.83
2018-06-13T06:40:31.388Z,16.95
2018-06-13T06:41:31.364Z,16.90
2018-06-13T06:42:31.333Z,16.94
2018-06-13T06:43:31.306Z,16.99
2018-06-13T06:44:31.316Z,16.94
2018-06-13T06:45:31.257Z,16.99
2018-06-13T06:46:31.233Z,17.06
2018-06-13T06:47:31.205Z,17.14
2018-06-13T06:48:31.171Z,17.25
2018-06-13T06:49:31.149Z,17.34
2018-06-13T06:50:31.126Z,17.32
2018-06-13T06:51:31.111Z,17.43
2018-06-13T06:52:31.070Z,17.56
2018-06-13T06:53:31.047Z,17.62
2018-06-13T06:54:31.028Z,17.78
2018-06-13T06:55:31.061Z,17.93
2018-06-13T06:56:30.965Z,17.72
2018-06-13T06:57:30.937Z,17.66
2018-06-13T06:58:30.915Z,17.53
2018-06-13T06:59:30.889Z,17.63
2018-06-13T07:00:30.863Z,17.49
2018-06-13T07:01:30.832Z,17.53
2018-06-13T07:02:30.820Z,17.37
2018-06-13T07:03:30.791Z,17.49
2018-06-13T07:04:30.764Z,17.66
2018-06-13T07:05:30.743Z,17.76
2018-06-13T07:06:30.761Z,17.84
2018-06-13T07:07:30.684Z,17.87
2018-06-13T07:08:30.665Z,17.94
2018-06-13T07:09:30.626Z,17.90
2018-06-13T07:10:30.608Z,17.83
2018-06-13T07:11:30.591Z,17.87
2018-06-13T07:12:30.570Z,17.73
2018-06-13T07:13:30.539Z,17.57
2018-06-13T07:14:30.509Z,17.62
2018-06-13T07:15:30.506Z,17.83
2018-06-13T07:16:30.468Z,17.79
2018-06-13T07:17:30.440Z,17.83
2018-06-13T07:18:30.421Z,17.84
2018-06-13T07:19:30.376Z,17.79
2018-06-13T07:20:30.356Z,17.72
2018-06-13T07:21:30.362Z,17.76
2018-06-13T07:22:32.097Z,17.68
2018-06-13T07:23:30.284Z,17.47
2018-06-13T07:24:30.269Z,17.56
2018-06-13T07:25:30.234Z,17.52
2018-06-13T07:26:30.199Z,17.39
2018-06-13T07:27:30.189Z,17.59
2018-06-13T07:28:30.146Z,17.63
2018-06-13T07:29:33.090Z,17.56
2018-06-13T07:30:30.120Z,17.46
2018-06-13T07:31:30.070Z,17.65
2018-06-13T07:32:30.048Z,17.75
2018-06-13T07:33:30.040Z,17.72
2018-06-13T07:34:29.993Z,17.69
2018-06-13T07:35:29.975Z,17.72
2018-06-13T07:36:29.948Z,17.84
2018-06-13T07:37:29.951Z,17.99
2018-06-13T07:38:29.904Z,17.96
2018-06-13T07:39:29.872Z,18.03
2018-06-13T07:40:29.883Z,18.01
2018-06-13T07:41:29.822Z,18.12
2018-06-13T07:42:29.789Z,18.21
2018-06-13T07:43:29.787Z,18.24
2018-06-13T07:44:29.752Z,18.20
2018-06-13T07:45:29.713Z,18.20
2018-06-13T07:46:29.691Z,18.01
2018-06-13T07:47:29.661Z,18.20
2018-06-13T07:48:29.653Z,18.18
2018-06-13T07:49:29.615Z,18.20
2018-06-13T07:50:29.593Z,18.30
2018-06-13T07:51:29.559Z,18.42
2018-06-13T07:52:29.540Z,18.36
2018-06-13T07:53:29.519Z,18.27
2018-06-13T07:54:31.097Z,18.11
2018-06-13T07:55:29.463Z,18.12
2018-06-13T07:56:29.439Z,18.15
2018-06-13T07:57:29.415Z,17.97
2018-06-13T07:58:29.386Z,17.93
2018-06-13T07:59:29.365Z,18.06
2018-06-13T08:00:29.342Z,18.13
2018-06-13T08:01:29.307Z,18.18
2018-06-13T08:02:29.296Z,18.12
2018-06-13T08:03:29.265Z,18.17
2018-06-13T08:04:29.240Z,18.31
2018-06-13T08:05:29.223Z,18.26
2018-06-13T08:06:29.183Z,18.13
2018-06-13T08:07:29.168Z,18.02
2018-06-13T08:08:29.247Z,17.99
2018-06-13T08:09:29.111Z,17.73
2018-06-13T08:10:29.095Z,17.66
2018-06-13T08:11:29.065Z,17.43
2018-06-13T08:12:29.044Z,17.32
2018-06-13T08:13:29.005Z,17.32
2018-06-13T08:14:28.979Z,17.32
2018-06-13T08:15:28.959Z,17.30
2018-06-13T08:16:28.940Z,17.27
2018-06-13T08:17:28.908Z,17.30
2018-06-13T08:18:28.875Z,17.32
2018-06-13T08:19:28.865Z,17.25
2018-06-13T08:20:28.826Z,17.34
2018-06-13T08:21:28.811Z,17.32
2018-06-13T08:22:28.780Z,17.41
2018-06-13T08:23:28.755Z,17.37
2018-06-13T08:24:28.730Z,17.30
2018-06-13T08:25:28.699Z,17.07
2018-06-13T08:26:28.667Z,17.04
2018-06-13T08:27:28.655Z,17.07
2018-06-13T08:28:28.624Z,17.20
2018-06-13T08:29:28.602Z,17.27
2018-06-13T08:30:28.591Z,17.28
2018-06-13T08:31:28.541Z,17.31
2018-06-13T08:32:28.523Z,17.34
2018-06-13T08:33:28.486Z,17.34
2018-06-13T08:34:28.469Z,17.35
2018-06-13T08:35:28.450Z,17.37
2018-06-13T08:36:28.410Z,17.34
2018-06-13T08:37:28.432Z,17.24
2018-06-13T08:38:28.382Z,17.14
2018-06-13T08:39:28.344Z,17.35
2018-06-13T08:40:28.307Z,17.30
2018-06-13T08:41:28.290Z,17.35
2018-06-13T08:42:28.258Z,17.35
2018-06-13T08:43:28.234Z,17.34
2018-06-13T08:44:28.212Z,17.35
2018-06-13T08:45:28.175Z,17.39
2018-06-13T08:46:28.152Z,17.25
2018-06-13T08:47:28.169Z,17.34
2018-06-13T08:48:28.106Z,17.39
2018-06-13T08:49:28.076Z,17.35
2018-06-13T08:50:28.080Z,17.39
2018-06-13T08:51:28.029Z,17.47
2018-06-13T08:52:27.993Z,17.63
2018-06-13T08:53:27.978Z,17.71
2018-06-13T08:54:27.950Z,17.81
2018-06-13T08:55:27.930Z,17.83
2018-06-13T08:56:27.890Z,17.88
2018-06-13T08:57:27.861Z,17.75
2018-06-13T08:58:27.838Z,17.81
2018-06-13T08:59:27.824Z,17.90
2018-06-13T09:00:27.802Z,17.87
2018-06-13T09:01:27.770Z,17.83
2018-06-13T09:02:27.749Z,17.62
2018-06-13T09:03:27.709Z,17.71
2018-06-13T09:04:27.691Z,17.66
2018-06-13T09:05:27.669Z,17.66
2018-06-13T09:06:27.639Z,17.49
2018-06-13T09:07:27.612Z,17.52
2018-06-13T09:08:27.584Z,17.47
2018-06-13T09:09:27.587Z,17.45
2018-06-13T09:10:27.527Z,17.45
2018-06-13T09:11:27.504Z,17.49
2018-06-13T09:12:27.489Z,17.46
2018-06-13T09:13:27.454Z,17.39
2018-06-13T09:14:27.448Z,17.34
2018-06-13T09:15:27.412Z,17.38
2018-06-13T09:16:27.377Z,17.39
2018-06-13T09:17:27.348Z,17.41
2018-06-13T09:18:27.331Z,17.31
2018-06-13T09:19:27.298Z,17.39
2018-06-13T09:20:27.277Z,17.41
2018-06-13T09:21:27.254Z,17.49
2018-06-13T09:22:27.278Z,17.50
2018-06-13T09:23:29.125Z,17.56
2018-06-13T09:24:27.173Z,17.62
2018-06-13T09:25:29.124Z,17.63
2018-06-13T09:26:27.128Z,17.87
2018-06-13T09:27:27.098Z,17.94
2018-06-13T09:28:27.069Z,18.12
2018-06-13T09:29:27.036Z,18.18
2018-06-13T09:30:27.011Z,18.21
2018-06-13T09:31:26.988Z,18.23
2018-06-13T09:32:26.966Z,18.17
2018-06-13T09:33:26.946Z,18.28
2018-06-13T09:34:26.921Z,18.36
2018-06-13T09:35:26.892Z,18.56
2018-06-13T09:36:26.863Z,18.54
2018-06-13T09:37:26.872Z,18.28
2018-06-13T09:38:26.812Z,18.26
2018-06-13T09:39:26.789Z,18.43
2018-06-13T09:40:26.759Z,18.79
2018-06-13T09:41:26.747Z,18.76
2018-06-13T09:42:26.716Z,18.89
2018-06-13T09:43:26.683Z,19.04
2018-06-13T09:44:26.669Z,19.09
2018-06-13T09:45:26.637Z,19.12
2018-06-13T09:46:26.613Z,19.12
2018-06-13T09:47:26.599Z,19.15
2018-06-13T09:48:26.559Z,19.41
2018-06-13T09:49:26.539Z,19.56
2018-06-13T09:50:26.523Z,19.62
2018-06-13T09:51:26.497Z,19.84
2018-06-13T09:52:26.478Z,19.92
2018-06-13T09:53:26.456Z,19.54
2018-06-13T09:54:28.131Z,19.53
2018-06-13T09:55:26.395Z,19.35
2018-06-13T09:56:26.371Z,19.12
2018-06-13T09:57:26.348Z,18.74
2018-06-13T09:58:26.324Z,18.75
2018-06-13T09:59:26.407Z,18.70
2018-06-13T10:00:26.281Z,18.63
2018-06-13T10:01:26.269Z,18.45
2018-06-13T10:02:28.131Z,18.30
2018-06-13T10:03:26.215Z,18.21
2018-06-13T10:04:26.188Z,18.20
2018-06-13T10:05:26.165Z,18.17
2018-06-13T10:06:26.144Z,18.13
2018-06-13T10:07:26.107Z,18.15
2018-06-13T10:08:26.076Z,18.12
2018-06-13T10:09:26.046Z,18.12
2018-06-13T10:10:26.033Z,18.21
2018-06-13T10:11:26.004Z,18.12
2018-06-13T10:12:25.972Z,18.17
2018-06-13T10:13:25.944Z,18.21
2018-06-13T10:14:25.920Z,18.26
2018-06-13T10:15:25.899Z,18.18
2018-06-13T10:16:25.881Z,18.20
2018-06-13T10:17:25.860Z,18.27
2018-06-13T10:18:25.823Z,18.24
2018-06-13T10:19:25.820Z,18.43
2018-06-13T10:20:25.772Z,18.54
2018-06-13T10:21:25.748Z,18.60
2018-06-13T10:22:25.722Z,18.75
2018-06-13T10:23:25.693Z,18.63
2018-06-13T10:24:25.682Z,18.63
2018-06-13T10:25:25.693Z,18.49
2018-06-13T10:26:25.621Z,18.42
2018-06-13T10:27:25.603Z,18.42
2018-06-13T10:28:25.583Z,18.56
2018-06-13T10:29:25.548Z,18.42
2018-06-13T10:30:25.524Z,18.39
2018-06-13T10:31:25.505Z,18.45
2018-06-13T10:32:25.468Z,18.30
2018-06-13T10:33:25.447Z,18.28
2018-06-13T10:34:25.436Z,18.38
2018-06-13T10:35:25.393Z,18.27
2018-06-13T10:36:25.377Z,18.15
2018-06-13T10:37:25.353Z,18.21
2018-06-13T10:38:25.327Z,18.15
2018-06-13T10:39:25.303Z,18.05
2018-06-13T10:40:25.275Z,17.97
2018-06-13T10:41:25.246Z,17.93
2018-06-13T10:42:25.226Z,17.93
2018-06-13T10:43:25.222Z,17.83
2018-06-13T10:44:25.176Z,17.83
2018-06-13T10:45:25.148Z,17.71
2018-06-13T10:46:25.132Z,17.65
2018-06-13T10:47:25.092Z,17.62
2018-06-13T10:48:25.084Z,17.66
2018-06-13T10:49:25.044Z,17.83
2018-06-13T10:50:25.022Z,17.81
2018-06-13T10:51:25.022Z,17.83
2018-06-13T10:52:24.967Z,17.81
2018-06-13T10:53:24.941Z,17.91
2018-06-13T10:54:24.915Z,17.90
2018-06-13T10:55:24.886Z,17.94
2018-06-13T10:56:24.874Z,17.91
2018-06-13T10:57:26.642Z,17.96
2018-06-13T10:58:24.824Z,17.91
2018-06-13T10:59:24.802Z,17.94
2018-06-13T11:00:24.764Z,17.94
2018-06-13T11:01:24.740Z,18.03
2018-06-13T11:02:24.722Z,18.03
2018-06-13T11:03:24.720Z,18.12
2018-06-13T11:04:24.664Z,18.15
2018-06-13T11:05:24.651Z,18.12
2018-06-13T11:06:24.607Z,18.13
2018-06-13T11:07:24.585Z,18.13
2018-06-13T11:08:24.585Z,18.20
2018-06-13T11:09:24.536Z,18.28
2018-06-13T11:10:24.511Z,18.31
2018-06-13T11:11:24.487Z,18.36
2018-06-13T11:12:24.451Z,18.30
2018-06-13T11:13:24.431Z,18.36
2018-06-13T11:14:24.423Z,18.28
2018-06-13T11:15:24.382Z,18.68
2018-06-13T11:16:24.359Z,18.79
2018-06-13T11:17:24.333Z,18.96
2018-06-13T11:18:24.312Z,18.94
2018-06-13T11:19:24.277Z,19.04
2018-06-13T11:20:24.305Z,19.24
2018-06-13T11:21:24.245Z,19.31
2018-06-13T11:22:24.205Z,19.37
2018-06-13T11:23:24.192Z,19.49
2018-06-13T11:24:24.150Z,19.67
2018-06-13T11:25:24.165Z,19.79
2018-06-13T11:26:24.116Z,19.63
2018-06-13T11:27:24.082Z,19.50
2018-06-13T11:28:24.067Z,19.75
2018-06-13T11:29:24.034Z,19.87
2018-06-13T11:30:24.013Z,19.89
2018-06-13T11:31:24.006Z,19.70
2018-06-13T11:32:23.966Z,19.54
2018-06-13T11:33:23.940Z,19.50
2018-06-13T11:34:25.654Z,18.82
2018-06-13T11:35:23.892Z,18.56
2018-06-13T11:36:23.861Z,18.42
2018-06-13T11:37:23.845Z,18.27
2018-06-13T11:38:23.819Z,18.26
2018-06-13T11:39:23.792Z,18.39
2018-06-13T11:40:23.793Z,18.41
2018-06-13T11:41:23.765Z,18.27
2018-06-13T11:42:23.726Z,18.36
2018-06-13T11:43:26.654Z,18.17
2018-06-13T11:44:23.667Z,18.30
2018-06-13T11:45:23.643Z,18.18
2018-06-13T11:46:23.622Z,18.20
2018-06-13T11:47:23.604Z,18.12
2018-06-13T11:48:23.568Z,18.13
2018-06-13T11:49:23.556Z,18.09
2018-06-13T11:50:23.520Z,18.08
2018-06-13T11:51:23.492Z,17.96
2018-06-13T11:52:23.479Z,18.08
2018-06-13T11:53:23.458Z,18.09
2018-06-13T11:54:23.425Z,18.15
2018-06-13T11:55:23.400Z,18.12
2018-06-13T11:56:23.372Z,18.17
2018-06-13T11:57:23.345Z,18.13
2018-06-13T11:58:23.320Z,18.27
2018-06-13T11:59:23.291Z,18.27
2018-06-13T12:00:23.306Z,18.26
2018-06-13T12:01:23.303Z,18.34
2018-06-13T12:02:23.220Z,18.24
2018-06-13T12:03:23.201Z,18.34
2018-06-13T12:04:23.171Z,18.33
2018-06-13T12:05:23.145Z,18.61
2018-06-13T12:06:23.152Z,18.70
2018-06-13T12:07:23.093Z,18.91
2018-06-13T12:08:23.065Z,18.81
2018-06-13T12:09:23.039Z,18.75
2018-06-13T12:10:23.015Z,18.83
2018-06-13T12:11:22.994Z,19.16
2018-06-13T12:12:22.970Z,19.42
2018-06-13T12:13:22.941Z,20.00
2018-06-13T12:14:22.921Z,20.68
2018-06-13T12:15:22.897Z,21.63
2018-06-13T12:16:22.868Z,23.01
2018-06-13T12:17:22.841Z,22.81
2018-06-13T12:18:22.820Z,22.21
2018-06-13T12:19:22.799Z,21.91
2018-06-13T12:20:22.766Z,21.81
2018-06-13T12:21:22.750Z,21.84
2018-06-13T12:22:22.731Z,23.04
2018-06-13T12:23:22.706Z,21.82
2018-06-13T12:24:22.688Z,21.81
2018-06-13T12:25:23.287Z,21.44
2018-06-13T12:26:22.644Z,20.95
2018-06-13T12:27:22.622Z,20.70
2018-06-13T12:28:22.603Z,20.58
2018-06-13T12:29:22.576Z,20.32
2018-06-13T12:30:22.575Z,20.22
2018-06-13T12:31:22.535Z,20.25
2018-06-13T12:32:22.550Z,20.00
2018-06-13T12:33:22.530Z,19.71
2018-06-13T12:34:22.501Z,19.67
2018-06-13T12:35:22.435Z,19.26
2018-06-13T12:36:22.420Z,19.37
2018-06-13T12:37:22.428Z,19.38
2018-06-13T12:38:22.370Z,19.45
2018-06-13T12:39:22.370Z,19.34
2018-06-13T12:40:22.319Z,19.44
2018-06-13T12:41:22.309Z,19.56
2018-06-13T12:42:22.274Z,19.50
2018-06-13T12:43:22.312Z,19.64
2018-06-13T12:44:22.234Z,19.57
2018-06-13T12:45:22.202Z,19.41
2018-06-13T12:46:22.189Z,19.49
2018-06-13T12:47:22.162Z,19.52
2018-06-13T12:48:22.134Z,19.57
2018-06-13T12:49:22.130Z,19.60
2018-06-13T12:50:22.122Z,19.59
2018-06-13T12:51:22.103Z,19.49
2018-06-13T12:52:22.037Z,19.53